Mallie, Kentucky
Current Conditions -  °F | °C
As of 5:55 PM on Thursday 20 Nov 2014 (Local Time) from KLNP Reporting Station
Clear Clear  
Wind Chill: 29°   Ceiling: Unl
Heat Index: 36°   Visibility: 10mi
Dew Point: 14°   Wind: 9mph
Humidity: 41%   Direction: 250°WSW
Pressure: 30.07"   Gusts: NA
Location:  37.24°N, 82.91°W
Report Text: KLNP 202255Z AUTO 25008KT 10SM CLR 02/M10 A3007 RMK AO2
Loading
Personal Weather Stations






























Interactive Weather Map New forecast layout! Learn more

10-Day Weather Forecast

Advertisements
Track Severe Weather on mobile